createdAt,value
2022-12-18T00:03:32.378Z,-3.76
2022-12-18T00:08:35.303Z,-3.78
2022-12-18T00:13:38.515Z,-4.06
2022-12-18T00:18:43.292Z,-3.78
2022-12-18T00:23:46.701Z,-3.56
2022-12-18T00:28:50.151Z,-3.38
2022-12-18T00:33:55.884Z,-3.29
2022-12-18T00:38:59.685Z,-3.30
2022-12-18T00:44:02.789Z,-3.23
2022-12-18T00:49:07.061Z,-3.06
2022-12-18T00:54:09.917Z,-3.19
2022-12-18T00:59:14.301Z,-3.08
2022-12-18T01:04:18.488Z,-3.03
2022-12-18T01:09:22.053Z,-3.15
2022-12-18T01:14:24.929Z,-3.31
2022-12-18T01:19:30.738Z,-3.25
2022-12-18T01:24:33.488Z,-3.18
2022-12-18T01:29:36.232Z,-3.17
2022-12-18T01:34:40.586Z,-3.18
2022-12-18T01:39:43.532Z,-3.25
2022-12-18T01:45:02.597Z,-3.19
2022-12-18T01:50:10.375Z,-3.27
2022-12-18T01:55:13.899Z,-3.33
2022-12-18T02:00:20.177Z,-3.17
2022-12-18T02:05:30.598Z,-3.19
2022-12-18T02:10:36.733Z,-3.26
2022-12-18T02:15:42.802Z,-3.43
2022-12-18T02:20:50.241Z,-3.51
2022-12-18T02:26:03.943Z,-3.66
2022-12-18T02:31:08.838Z,-3.75
2022-12-18T02:36:13.138Z,-3.67
2022-12-18T02:41:18.054Z,-3.63
2022-12-18T02:46:31.227Z,-3.64
2022-12-18T02:51:42.004Z,-3.65
2022-12-18T02:56:51.381Z,-3.55
2022-12-18T03:02:00.038Z,-3.67
2022-12-18T03:07:05.629Z,-3.67
2022-12-18T03:12:25.633Z,-3.57
2022-12-18T03:17:33.579Z,-3.82
2022-12-18T03:22:37.545Z,-3.70
2022-12-18T03:27:46.074Z,-3.67
2022-12-18T03:32:59.997Z,-3.72
2022-12-18T03:38:03.953Z,-4.05
2022-12-18T03:43:13.209Z,-3.93
2022-12-18T03:48:20.814Z,-3.95
2022-12-18T03:53:30.446Z,-3.79
2022-12-18T03:58:37.676Z,-3.62
2022-12-18T04:03:51.918Z,-3.79
2022-12-18T04:08:56.564Z,-3.81
2022-12-18T04:14:07.022Z,-3.67
2022-12-18T04:19:10.547Z,-3.73
2022-12-18T04:24:17.007Z,-3.92
2022-12-18T04:29:31.536Z,-4.10
2022-12-18T04:34:35.780Z,-3.97
2022-12-18T04:39:38.892Z,-3.99
2022-12-18T04:44:48.730Z,-3.96
2022-12-18T04:49:51.554Z,-3.93
2022-12-18T04:54:54.371Z,-3.82
2022-12-18T04:59:58.578Z,-4.13
2022-12-18T05:05:01.338Z,-4.18
2022-12-18T05:10:10.387Z,-4.38
2022-12-18T05:15:14.538Z,-4.48
2022-12-18T05:20:17.354Z,-4.65
2022-12-18T05:25:20.389Z,-4.68
2022-12-18T05:30:24.799Z,-4.62
2022-12-18T05:35:27.595Z,-4.78
2022-12-18T05:40:30.868Z,-4.69
2022-12-18T05:45:39.099Z,-4.79
2022-12-18T05:50:43.064Z,-4.73
2022-12-18T05:55:46.469Z,-4.78
2022-12-18T06:00:50.717Z,-4.78
2022-12-18T06:05:53.515Z,-4.82
2022-12-18T06:10:56.491Z,-4.88
2022-12-18T06:16:04.207Z,-4.96
2022-12-18T06:21:07.371Z,-4.88
2022-12-18T06:26:12.332Z,-4.84
2022-12-18T06:31:16.547Z,-4.83
2022-12-18T06:36:19.542Z,-4.68
2022-12-18T06:41:23.357Z,-4.66
2022-12-18T06:46:27.538Z,-4.70
2022-12-18T06:51:30.273Z,-4.71
2022-12-18T06:56:33.057Z,-4.69
2022-12-18T07:01:37.550Z,-4.62
2022-12-18T07:06:40.464Z,-4.48
2022-12-18T07:11:43.288Z,-4.63
2022-12-18T07:16:47.597Z,-4.60
2022-12-18T07:21:51.675Z,-4.71
2022-12-18T07:26:54.756Z,-4.64
2022-12-18T07:31:59.230Z,-4.75
2022-12-18T07:37:02.144Z,-4.75
2022-12-18T07:42:23.060Z,-4.73
2022-12-18T07:47:27.435Z,-4.75
2022-12-18T07:52:31.083Z,-4.69
2022-12-18T07:57:50.031Z,-4.50
2022-12-18T08:02:55.669Z,-4.42
2022-12-18T08:07:58.507Z,-4.33
2022-12-18T08:13:04.906Z,-4.23
2022-12-18T08:18:14.053Z,-4.18
2022-12-18T08:23:17.297Z,-4.02
2022-12-18T08:28:20.295Z,-4.02
2022-12-18T08:33:24.515Z,-4.00
2022-12-18T08:38:27.325Z,-3.94
2022-12-18T08:43:47.627Z,-3.92
2022-12-18T08:48:52.376Z,-3.73
2022-12-18T08:53:55.241Z,-3.62
2022-12-18T08:58:58.281Z,-3.50
2022-12-18T09:04:02.440Z,-3.37
2022-12-18T09:09:06.178Z,-3.30
2022-12-18T09:14:09.151Z,-3.32
2022-12-18T09:19:13.333Z,-3.26
2022-12-18T09:24:16.277Z,-3.21
2022-12-18T09:29:19.219Z,-3.06
2022-12-18T09:34:23.667Z,-3.04
2022-12-18T09:39:26.456Z,-2.94
2022-12-18T09:44:31.254Z,-2.85
2022-12-18T09:49:37.371Z,-2.75
2022-12-18T09:54:41.635Z,-2.63
2022-12-18T09:59:46.963Z,-2.65
2022-12-18T10:05:02.987Z,-2.67
2022-12-18T10:10:09.427Z,-2.56
2022-12-18T10:15:17.517Z,-2.77
2022-12-18T10:20:27.964Z,-2.53
2022-12-18T10:25:34.194Z,-2.63
2022-12-18T10:30:37.075Z,-2.54
2022-12-18T10:35:43.371Z,-2.47
2022-12-18T10:40:54.260Z,-2.35
2022-12-18T10:46:03.844Z,-2.29
2022-12-18T10:51:12.694Z,-2.45
2022-12-18T10:56:22.224Z,-2.41
2022-12-18T11:01:25.202Z,-2.45
2022-12-18T11:06:29.547Z,-2.32
2022-12-18T11:11:33.770Z,-2.31
2022-12-18T11:16:38.832Z,-2.26
2022-12-18T11:21:44.006Z,-2.04
2022-12-18T11:26:46.829Z,-1.89
2022-12-18T11:31:49.704Z,-1.85
2022-12-18T11:36:54.689Z,-1.79
2022-12-18T11:42:13.478Z,-1.82
2022-12-18T11:47:24.074Z,-1.83
2022-12-18T11:52:31.359Z,-1.65
2022-12-18T11:57:39.711Z,-1.61
2022-12-18T12:03:06.245Z,-1.62
2022-12-18T12:08:17.558Z,-1.37
2022-12-18T12:13:29.899Z,-1.31
2022-12-18T12:18:43.508Z,-1.17
2022-12-18T12:23:56.223Z,-1.06
2022-12-18T12:29:10.438Z,-1.17
2022-12-18T12:34:19.567Z,-1.09
2022-12-18T12:39:26.487Z,-0.80
2022-12-18T12:44:31.910Z,-0.94
2022-12-18T12:49:40.622Z,-0.96
2022-12-18T12:54:45.984Z,-0.75
2022-12-18T12:59:53.404Z,-0.83
2022-12-18T13:04:59.853Z,-0.89
2022-12-18T13:10:35.618Z,-0.85
2022-12-18T13:15:44.216Z,-0.91
2022-12-18T13:20:54.456Z,-0.80
2022-12-18T13:26:01.676Z,-0.91
2022-12-18T13:31:05.118Z,-0.86
2022-12-18T13:36:15.538Z,-0.83
2022-12-18T13:41:28.116Z,-0.72
2022-12-18T13:46:32.857Z,-0.75
2022-12-18T13:51:36.576Z,-0.74
2022-12-18T13:56:46.389Z,-0.68
2022-12-18T14:01:53.747Z,-0.72
2022-12-18T14:07:00.127Z,-0.71
2022-12-18T14:12:37.113Z,-0.74
2022-12-18T14:17:39.919Z,-0.72
2022-12-18T14:22:45.388Z,-0.71
2022-12-18T14:27:52.493Z,-0.69
2022-12-18T14:33:11.182Z,-0.66
2022-12-18T14:38:26.318Z,-0.62
2022-12-18T14:43:31.703Z,-0.72
2022-12-18T14:48:39.852Z,-0.69
2022-12-18T14:53:50.560Z,-0.62
2022-12-18T14:58:59.506Z,-0.70
2022-12-18T15:04:04.024Z,-0.58
2022-12-18T15:09:23.379Z,-0.61
2022-12-18T15:14:34.006Z,-0.57
2022-12-18T15:19:40.919Z,-0.59
2022-12-18T15:24:44.142Z,-0.58
2022-12-18T15:30:02.177Z,-0.52
2022-12-18T15:35:09.895Z,-0.53
2022-12-18T15:40:15.323Z,-0.73
2022-12-18T15:45:21.791Z,-0.53
2022-12-18T15:50:27.316Z,-0.49
2022-12-18T15:55:48.945Z,-0.50
2022-12-18T16:00:53.341Z,-0.52
2022-12-18T16:05:56.240Z,-0.49
2022-12-18T16:11:00.159Z,-0.45
2022-12-18T16:16:04.413Z,-0.45
2022-12-18T16:21:07.564Z,-0.45
2022-12-18T16:26:10.364Z,-0.45
2022-12-18T16:31:14.686Z,-0.44
2022-12-18T16:36:17.617Z,-0.41
2022-12-18T16:41:33.055Z,-0.39
2022-12-18T16:46:37.376Z,-0.36
2022-12-18T16:51:40.317Z,-0.35
2022-12-18T16:56:43.156Z,-0.34
2022-12-18T17:01:49.997Z,-0.33
2022-12-18T17:06:54.202Z,-0.29
2022-12-18T17:11:57.122Z,-0.25
2022-12-18T17:17:20.858Z,-0.24
2022-12-18T17:22:24.449Z,-0.27
2022-12-18T17:27:27.388Z,-0.18
2022-12-18T17:32:31.557Z,-0.14
2022-12-18T17:37:34.420Z,-0.14
2022-12-18T17:42:37.501Z,-0.12
2022-12-18T17:47:42.253Z,-0.10
2022-12-18T17:52:45.103Z,-0.12
2022-12-18T17:57:47.924Z,-0.10
2022-12-18T18:02:52.527Z,-0.06
2022-12-18T18:07:55.560Z,-0.04
2022-12-18T18:13:16.117Z,0.01
2022-12-18T18:18:20.299Z,0.05
2022-12-18T18:23:25.022Z,0.04
2022-12-18T18:28:27.896Z,0.04
2022-12-18T18:33:32.386Z,0.08
2022-12-18T18:38:35.195Z,0.16
2022-12-18T18:43:38.243Z,0.08
2022-12-18T18:48:43.013Z,0.22
2022-12-18T18:53:48.268Z,0.19
2022-12-18T18:58:51.779Z,0.26
2022-12-18T19:03:56.220Z,0.26
2022-12-18T19:08:59.548Z,0.25
2022-12-18T19:14:04.581Z,0.29
2022-12-18T19:19:09.774Z,0.38
2022-12-18T19:24:12.818Z,0.40
2022-12-18T19:29:15.959Z,0.50
2022-12-18T19:34:20.140Z,0.49
2022-12-18T19:39:23.033Z,0.43
2022-12-18T19:44:26.841Z,0.43
2022-12-18T19:49:32.649Z,0.42
2022-12-18T19:54:35.546Z,0.35
2022-12-18T19:59:38.986Z,0.37
2022-12-18T20:04:43.805Z,0.38
2022-12-18T20:09:46.563Z,0.39
2022-12-18T20:14:49.723Z,0.29
2022-12-18T20:19:53.891Z,0.31
2022-12-18T20:24:57.002Z,0.30
2022-12-18T20:29:59.932Z,0.28
2022-12-18T20:35:04.390Z,0.26
2022-12-18T20:40:10.517Z,0.30
2022-12-18T20:45:13.415Z,0.29
2022-12-18T20:50:17.790Z,0.29
2022-12-18T20:55:20.650Z,0.26
2022-12-18T21:00:23.506Z,0.20
2022-12-18T21:05:27.636Z,0.25
2022-12-18T21:10:30.537Z,0.27
2022-12-18T21:15:33.791Z,0.28
2022-12-18T21:20:37.977Z,0.29
2022-12-18T21:25:40.929Z,0.30
2022-12-18T21:30:44.042Z,0.37
2022-12-18T21:35:48.317Z,0.36
2022-12-18T21:40:51.143Z,0.39
2022-12-18T21:45:54.138Z,0.37
2022-12-18T21:50:59.896Z,0.40
2022-12-18T21:56:02.776Z,0.41
2022-12-18T22:01:05.621Z,0.41
2022-12-18T22:06:10.037Z,0.41
2022-12-18T22:11:13.849Z,0.44
2022-12-18T22:16:17.431Z,0.47
2022-12-18T22:21:29.237Z,0.48
2022-12-18T22:26:39.468Z,0.41
2022-12-18T22:31:43.118Z,0.50
2022-12-18T22:36:48.935Z,0.54
2022-12-18T22:41:51.798Z,0.50
2022-12-18T22:46:56.189Z,0.55
2022-12-18T22:52:12.861Z,0.49
2022-12-18T22:57:17.749Z,0.56
2022-12-18T23:02:21.000Z,0.63
2022-12-18T23:07:25.270Z,0.62
2022-12-18T23:12:28.140Z,0.65
2022-12-18T23:17:33.069Z,0.70
2022-12-18T23:22:37.363Z,0.73
2022-12-18T23:27:42.918Z,0.75
2022-12-18T23:32:45.748Z,0.75
2022-12-18T23:37:58.693Z,0.81
2022-12-18T23:43:02.401Z,0.87
2022-12-18T23:48:05.446Z,0.95
2022-12-18T23:53:10.401Z,1.01
2022-12-18T23:58:18.376Z,1.07
